sensor_id;sensor_type;location;lat;lon;timestamp;temperature;humidity
12843;DHT22;35724;49.324;-123.118;2023-06-14T00:06:01;24.20;60.80
12843;DHT22;35724;49.324;-123.118;2023-06-14T00:16:08;24.10;61.20
12843;DHT22;35724;49.324;-123.118;2023-06-14T00:26:18;24.20;60.80
12843;DHT22;35724;49.324;-123.118;2023-06-14T00:36:25;24.10;60.00
12843;DHT22;35724;49.324;-123.118;2023-06-14T00:46:34;24.00;60.20
12843;DHT22;35724;49.324;-123.118;2023-06-14T00:56:44;23.90;59.20
12843;DHT22;35724;49.324;-123.118;2023-06-14T01:07:01;23.90;59.70
12843;DHT22;35724;49.324;-123.118;2023-06-14T01:17:15;24.00;59.20
12843;DHT22;35724;49.324;-123.118;2023-06-14T01:27:26;24.20;58.80
12843;DHT22;35724;49.324;-123.118;2023-06-14T01:37:35;24.20;59.10
12843;DHT22;35724;49.324;-123.118;2023-06-14T01:47:45;24.30;60.20
12843;DHT22;35724;49.324;-123.118;2023-06-14T01:57:53;24.30;60.50
12843;DHT22;35724;49.324;-123.118;2023-06-14T02:08:02;24.50;60.00
12843;DHT22;35724;49.324;-123.118;2023-06-14T02:18:10;24.60;59.10
12843;DHT22;35724;49.324;-123.118;2023-06-14T02:28:21;24.60;58.90
12843;DHT22;35724;49.324;-123.118;2023-06-14T02:38:28;24.70;59.00
12843;DHT22;35724;49.324;-123.118;2023-06-14T02:48:38;24.70;59.40
12843;DHT22;35724;49.324;-123.118;2023-06-14T02:58:46;24.60;59.80
12843;DHT22;35724;49.324;-123.118;2023-06-14T03:08:56;24.70;60.40
12843;DHT22;35724;49.324;-123.118;2023-06-14T03:19:06;24.90;60.20
12843;DHT22;35724;49.324;-123.118;2023-06-14T03:29:53;24.90;59.90
12843;DHT22;35724;49.324;-123.118;2023-06-14T03:40:32;25.00;60.30
12843;DHT22;35724;49.324;-123.118;2023-06-14T03:50:43;25.00;60.40
12843;DHT22;35724;49.324;-123.118;2023-06-14T04:00:52;25.00;60.40
12843;DHT22;35724;49.324;-123.118;2023-06-14T04:11:03;25.10;60.70
12843;DHT22;35724;49.324;-123.118;2023-06-14T04:21:10;25.10;60.30
12843;DHT22;35724;49.324;-123.118;2023-06-14T04:31:20;25.20;60.00
12843;DHT22;35724;49.324;-123.118;2023-06-14T04:41:30;25.10;60.70
12843;DHT22;35724;49.324;-123.118;2023-06-14T04:51:41;25.10;61.30
12843;DHT22;35724;49.324;-123.118;2023-06-14T05:01:48;25.10;61.60
12843;DHT22;35724;49.324;-123.118;2023-06-14T05:11:59;25.10;62.00
12843;DHT22;35724;49.324;-123.118;2023-06-14T05:22:07;25.20;62.20
12843;DHT22;35724;49.324;-123.118;2023-06-14T05:32:16;25.20;62.40
12843;DHT22;35724;49.324;-123.118;2023-06-14T05:42:24;25.20;62.40
12843;DHT22;35724;49.324;-123.118;2023-06-14T05:52:34;25.30;62.60
12843;DHT22;35724;49.324;-123.118;2023-06-14T06:02:42;25.30;62.60
12843;DHT22;35724;49.324;-123.118;2023-06-14T06:12:52;25.40;62.70
12843;DHT22;35724;49.324;-123.118;2023-06-14T06:23:02;25.40;63.30
12843;DHT22;35724;49.324;-123.118;2023-06-14T06:33:11;25.60;60.70
12843;DHT22;35724;49.324;-123.118;2023-06-14T06:43:19;25.60;60.40
12843;DHT22;35724;49.324;-123.118;2023-06-14T06:53:28;25.60;60.20
12843;DHT22;35724;49.324;-123.118;2023-06-14T07:03:47;25.60;60.00
12843;DHT22;35724;49.324;-123.118;2023-06-14T07:13:56;25.60;59.80
12843;DHT22;35724;49.324;-123.118;2023-06-14T07:24:04;25.60;59.60
12843;DHT22;35724;49.324;-123.118;2023-06-14T07:34:14;25.50;59.50
12843;DHT22;35724;49.324;-123.118;2023-06-14T07:44:22;25.50;59.30
12843;DHT22;35724;49.324;-123.118;2023-06-14T07:54:31;25.50;59.10
12843;DHT22;35724;49.324;-123.118;2023-06-14T08:04:39;25.50;58.60
12843;DHT22;35724;49.324;-123.118;2023-06-14T08:14:49;25.50;58.50
12843;DHT22;35724;49.324;-123.118;2023-06-14T08:25:15;25.50;58.10
12843;DHT22;35724;49.324;-123.118;2023-06-14T08:35:26;25.50;58.20
12843;DHT22;35724;49.324;-123.118;2023-06-14T08:45:33;25.50;58.20
12843;DHT22;35724;49.324;-123.118;2023-06-14T08:55:42;25.50;58.00
12843;DHT22;35724;49.324;-123.118;2023-06-14T09:05:51;25.50;58.00
12843;DHT22;35724;49.324;-123.118;2023-06-14T09:16:01;25.40;57.90
12843;DHT22;35724;49.324;-123.118;2023-06-14T09:26:10;25.50;57.80
12843;DHT22;35724;49.324;-123.118;2023-06-14T09:36:22;25.60;57.70
12843;DHT22;35724;49.324;-123.118;2023-06-14T09:46:30;25.50;57.30
12843;DHT22;35724;49.324;-123.118;2023-06-14T09:56:44;25.50;57.50
12843;DHT22;35724;49.324;-123.118;2023-06-14T10:06:53;25.50;57.50
12843;DHT22;35724;49.324;-123.118;2023-06-14T10:17:07;25.50;57.50
12843;DHT22;35724;49.324;-123.118;2023-06-14T10:27:16;25.40;57.50
12843;DHT22;35724;49.324;-123.118;2023-06-14T10:37:30;25.30;57.40
12843;DHT22;35724;49.324;-123.118;2023-06-14T10:47:37;25.30;57.60
12843;DHT22;35724;49.324;-123.118;2023-06-14T10:57:47;25.30;57.60
12843;DHT22;35724;49.324;-123.118;2023-06-14T11:18:52;25.30;57.60
12843;DHT22;35724;49.324;-123.118;2023-06-14T11:29:00;25.30;57.70
12843;DHT22;35724;49.324;-123.118;2023-06-14T11:39:09;25.30;57.60
12843;DHT22;35724;49.324;-123.118;2023-06-14T11:49:17;25.20;57.60
12843;DHT22;35724;49.324;-123.118;2023-06-14T11:59:26;25.20;57.60
12843;DHT22;35724;49.324;-123.118;2023-06-14T12:09:34;25.20;57.60
12843;DHT22;35724;49.324;-123.118;2023-06-14T12:19:48;25.20;57.50
12843;DHT22;35724;49.324;-123.118;2023-06-14T12:30:02;25.20;57.60
12843;DHT22;35724;49.324;-123.118;2023-06-14T12:40:14;25.10;57.50
12843;DHT22;35724;49.324;-123.118;2023-06-14T12:50:22;25.20;57.60
12843;DHT22;35724;49.324;-123.118;2023-06-14T13:00:32;25.10;57.50
12843;DHT22;35724;49.324;-123.118;2023-06-14T13:10:40;25.10;57.50
12843;DHT22;35724;49.324;-123.118;2023-06-14T13:20:49;25.10;57.50
12843;DHT22;35724;49.324;-123.118;2023-06-14T13:30:57;25.10;57.60
12843;DHT22;35724;49.324;-123.118;2023-06-14T13:41:06;25.10;57.50
12843;DHT22;35724;49.324;-123.118;2023-06-14T13:51:18;25.10;57.40
12843;DHT22;35724;49.324;-123.118;2023-06-14T14:01:27;25.10;57.50
12843;DHT22;35724;49.324;-123.118;2023-06-14T14:11:35;25.00;57.40
12843;DHT22;35724;49.324;-123.118;2023-06-14T14:21:49;25.00;57.40
12843;DHT22;35724;49.324;-123.118;2023-06-14T14:31:58;25.00;55.00
12843;DHT22;35724;49.324;-123.118;2023-06-14T14:42:08;24.80;55.80
12843;DHT22;35724;49.324;-123.118;2023-06-14T14:52:16;24.70;56.80
12843;DHT22;35724;49.324;-123.118;2023-06-14T15:02:29;24.70;56.70
12843;DHT22;35724;49.324;-123.118;2023-06-14T15:12:37;24.50;56.10
12843;DHT22;35724;49.324;-123.118;2023-06-14T15:22:46;24.50;55.30
12843;DHT22;35724;49.324;-123.118;2023-06-14T15:32:54;24.40;53.80
12843;DHT22;35724;49.324;-123.118;2023-06-14T15:43:03;24.40;53.70
12843;DHT22;35724;49.324;-123.118;2023-06-14T15:53:10;24.30;55.40
12843;DHT22;35724;49.324;-123.118;2023-06-14T16:03:19;24.30;55.70
12843;DHT22;35724;49.324;-123.118;2023-06-14T16:13:27;24.20;54.80
12843;DHT22;35724;49.324;-123.118;2023-06-14T16:23:39;24.20;54.30
12843;DHT22;35724;49.324;-123.118;2023-06-14T16:33:46;24.20;54.70
12843;DHT22;35724;49.324;-123.118;2023-06-14T16:44:00;24.20;54.50
12843;DHT22;35724;49.324;-123.118;2023-06-14T16:54:09;24.20;55.10
12843;DHT22;35724;49.324;-123.118;2023-06-14T17:04:18;24.30;55.10
12843;DHT22;35724;49.324;-123.118;2023-06-14T17:14:25;24.30;54.80
12843;DHT22;35724;49.324;-123.118;2023-06-14T17:24:34;24.40;54.80
12843;DHT22;35724;49.324;-123.118;2023-06-14T17:34:41;24.50;54.30
12843;DHT22;35724;49.324;-123.118;2023-06-14T17:44:50;24.50;53.60
12843;DHT22;35724;49.324;-123.118;2023-06-14T17:55:01;24.50;52.80
12843;DHT22;35724;49.324;-123.118;2023-06-14T18:05:09;24.50;53.30
12843;DHT22;35724;49.324;-123.118;2023-06-14T18:15:17;24.50;53.40
12843;DHT22;35724;49.324;-123.118;2023-06-14T18:25:26;24.50;53.80
12843;DHT22;35724;49.324;-123.118;2023-06-14T18:35:33;24.50;53.60
12843;DHT22;35724;49.324;-123.118;2023-06-14T18:45:44;24.50;53.60
12843;DHT22;35724;49.324;-123.118;2023-06-14T18:55:51;24.50;53.60
12843;DHT22;35724;49.324;-123.118;2023-06-14T19:06:00;24.50;53.80
12843;DHT22;35724;49.324;-123.118;2023-06-14T19:16:08;24.40;53.80
12843;DHT22;35724;49.324;-123.118;2023-06-14T19:26:17;24.40;53.60
12843;DHT22;35724;49.324;-123.118;2023-06-14T19:36:24;24.40;53.70
12843;DHT22;35724;49.324;-123.118;2023-06-14T19:46:32;24.40;53.80
12843;DHT22;35724;49.324;-123.118;2023-06-14T19:56:43;24.40;54.40
12843;DHT22;35724;49.324;-123.118;2023-06-14T20:06:52;24.50;54.20
12843;DHT22;35724;49.324;-123.118;2023-06-14T20:17:03;24.50;54.40
12843;DHT22;35724;49.324;-123.118;2023-06-14T20:27:13;24.60;54.60
12843;DHT22;35724;49.324;-123.118;2023-06-14T20:37:40;24.60;54.90
12843;DHT22;35724;49.324;-123.118;2023-06-14T20:47:49;24.60;54.90
12843;DHT22;35724;49.324;-123.118;2023-06-14T20:57:56;24.60;54.60
12843;DHT22;35724;49.324;-123.118;2023-06-14T21:08:06;24.70;54.30
12843;DHT22;35724;49.324;-123.118;2023-06-14T21:18:13;24.70;54.10
12843;DHT22;35724;49.324;-123.118;2023-06-14T21:28:21;24.70;54.20
12843;DHT22;35724;49.324;-123.118;2023-06-14T21:38:28;24.70;54.20
12843;DHT22;35724;49.324;-123.118;2023-06-14T21:48:37;24.70;54.30
12843;DHT22;35724;49.324;-123.118;2023-06-14T21:58:44;24.70;54.20
12843;DHT22;35724;49.324;-123.118;2023-06-14T22:08:55;24.60;54.30
12843;DHT22;35724;49.324;-123.118;2023-06-14T22:19:02;24.50;55.20
12843;DHT22;35724;49.324;-123.118;2023-06-14T22:29:21;24.60;55.40
12843;DHT22;35724;49.324;-123.118;2023-06-14T22:39:35;24.60;55.40
12843;DHT22;35724;49.324;-123.118;2023-06-14T22:49:43;24.70;55.30
12843;DHT22;35724;49.324;-123.118;2023-06-14T23:00:07;24.80;54.30
12843;DHT22;35724;49.324;-123.118;2023-06-14T23:10:18;24.80;53.30
12843;DHT22;35724;49.324;-123.118;2023-06-14T23:20:28;24.80;52.50
12843;DHT22;35724;49.324;-123.118;2023-06-14T23:30:38;24.80;54.60
12843;DHT22;35724;49.324;-123.118;2023-06-14T23:40:46;24.90;54.20
12843;DHT22;35724;49.324;-123.118;2023-06-14T23:50:59;24.90;54.90
